createdAt,value
2018-01-15T00:00:37.888Z,1.20
2018-01-15T00:03:05.349Z,1.20
2018-01-15T00:05:32.884Z,1.20
2018-01-15T00:08:00.354Z,1.20
2018-01-15T00:10:27.796Z,1.20
2018-01-15T00:12:55.259Z,1.20
2018-01-15T00:15:22.719Z,1.20
2018-01-15T00:17:50.164Z,1.20
2018-01-15T00:20:18.396Z,1.20
2018-01-15T00:22:45.846Z,1.10
2018-01-15T00:25:13.301Z,1.20
2018-01-15T00:27:40.748Z,1.10
2018-01-15T00:30:08.212Z,1.10
2018-01-15T00:32:35.670Z,1.10
2018-01-15T00:35:06.076Z,1.10
2018-01-15T00:37:33.500Z,1.10
2018-01-15T00:40:04.047Z,1.10
2018-01-15T00:42:31.523Z,1.00
2018-01-15T00:44:59.778Z,1.00
2018-01-15T00:47:27.166Z,0.90
2018-01-15T00:49:54.628Z,1.00
2018-01-15T00:52:22.064Z,0.90
2018-01-15T00:54:49.537Z,0.90
2018-01-15T00:57:16.980Z,0.80
2018-01-15T00:59:44.421Z,0.90
2018-01-15T01:02:11.884Z,0.90
2018-01-15T01:04:39.342Z,0.90
2018-01-15T01:07:07.277Z,0.90
2018-01-15T01:09:34.720Z,1.00
2018-01-15T01:12:02.169Z,1.00
2018-01-15T01:14:29.652Z,1.00
2018-01-15T01:16:57.866Z,0.90
2018-01-15T01:19:25.648Z,0.90
2018-01-15T01:21:53.101Z,0.90
2018-01-15T01:24:20.571Z,0.90
2018-01-15T01:26:48.026Z,0.90
2018-01-15T01:29:15.464Z,0.90
2018-01-15T01:31:43.370Z,0.90
2018-01-15T01:34:10.838Z,0.90
2018-01-15T01:36:38.274Z,0.80
2018-01-15T01:39:05.732Z,0.80
2018-01-15T01:41:33.176Z,0.80
2018-01-15T01:44:00.649Z,0.80
2018-01-15T01:46:28.106Z,0.80
2018-01-15T01:48:59.337Z,0.80
2018-01-15T01:51:26.796Z,0.80
2018-01-15T01:53:54.315Z,0.80
2018-01-15T01:56:21.870Z,0.80
2018-01-15T01:58:49.323Z,0.80
2018-01-15T02:01:16.774Z,0.80
2018-01-15T02:03:44.251Z,0.70
2018-01-15T02:06:11.701Z,0.70
2018-01-15T02:08:39.148Z,0.70
2018-01-15T02:11:06.614Z,0.70
2018-01-15T02:13:34.060Z,0.70
2018-01-15T02:16:01.980Z,0.70
2018-01-15T02:18:29.424Z,0.70
2018-01-15T02:20:56.977Z,0.70
2018-01-15T02:23:24.437Z,0.70
2018-01-15T02:25:51.906Z,0.70
2018-01-15T02:28:19.371Z,0.60
2018-01-15T02:30:46.823Z,0.60
2018-01-15T02:33:14.260Z,0.60
2018-01-15T02:35:41.721Z,0.60
2018-01-15T02:38:09.173Z,0.70
2018-01-15T02:40:36.925Z,0.70
2018-01-15T02:43:05.143Z,0.80
2018-01-15T02:45:32.614Z,0.70
2018-01-15T02:48:00.101Z,0.90
2018-01-15T02:50:27.573Z,1.00
2018-01-15T02:52:55.310Z,1.10
2018-01-15T02:55:22.765Z,1.20
2018-01-15T02:57:50.213Z,1.30
2018-01-15T03:00:17.669Z,1.40
2018-01-15T03:02:45.112Z,1.40
2018-01-15T03:05:13.613Z,1.50
2018-01-15T03:07:41.061Z,1.50
2018-01-15T03:10:08.529Z,1.60
2018-01-15T03:12:35.984Z,1.60
2018-01-15T03:15:03.438Z,1.70
2018-01-15T03:17:31.218Z,1.70
2018-01-15T03:19:58.654Z,1.80
2018-01-15T03:22:26.099Z,1.80
2018-01-15T03:24:53.568Z,1.80
2018-01-15T03:27:21.013Z,1.90
2018-01-15T03:29:48.472Z,1.90
2018-01-15T03:32:15.913Z,1.90
2018-01-15T03:34:43.372Z,2.00
2018-01-15T03:37:10.811Z,2.00
2018-01-15T03:39:38.269Z,2.00
2018-01-15T03:42:05.981Z,2.00
2018-01-15T03:44:33.436Z,2.00
2018-01-15T03:47:00.877Z,2.00
2018-01-15T03:49:28.332Z,2.00
2018-01-15T03:51:55.780Z,1.90
2018-01-15T03:54:23.268Z,1.90
2018-01-15T03:56:50.699Z,2.00
2018-01-15T03:59:18.136Z,2.00
2018-01-15T04:01:45.596Z,2.00
2018-01-15T04:04:13.052Z,2.00
2018-01-15T04:06:40.502Z,2.10
2018-01-15T04:09:07.938Z,2.10
2018-01-15T04:11:35.381Z,2.20
2018-01-15T04:14:02.839Z,2.20
2018-01-15T04:16:30.427Z,2.10
2018-01-15T04:18:58.004Z,2.10
2018-01-15T04:21:25.440Z,2.00
2018-01-15T04:23:52.939Z,2.00
2018-01-15T04:26:20.376Z,2.10
2018-01-15T04:28:47.819Z,2.10
2018-01-15T04:31:15.473Z,2.10
2018-01-15T04:33:42.904Z,2.10
2018-01-15T04:36:10.352Z,2.20
2018-01-15T04:38:37.811Z,2.20
2018-01-15T04:41:05.417Z,2.10
2018-01-15T04:43:33.321Z,2.10
2018-01-15T04:46:00.752Z,2.10
2018-01-15T04:48:28.187Z,2.20
2018-01-15T04:50:55.643Z,2.30
2018-01-15T04:53:23.096Z,2.30
2018-01-15T04:55:50.565Z,2.30
2018-01-15T04:58:18.001Z,2.30
2018-01-15T05:00:45.446Z,2.40
2018-01-15T05:03:12.923Z,2.40
2018-01-15T05:05:40.380Z,2.40
2018-01-15T05:08:07.837Z,2.40
2018-01-15T05:10:35.275Z,2.40
2018-01-15T05:13:02.731Z,2.40
2018-01-15T05:15:30.195Z,2.40
2018-01-15T05:17:57.634Z,2.40
2018-01-15T05:20:25.092Z,2.40
2018-01-15T05:22:52.536Z,2.30
2018-01-15T05:25:20.745Z,2.20
2018-01-15T05:27:48.186Z,2.10
2018-01-15T05:30:15.621Z,2.20
2018-01-15T05:32:43.463Z,2.10
2018-01-15T05:35:14.400Z,2.20
2018-01-15T05:37:41.840Z,2.10
2018-01-15T05:40:09.317Z,2.30
2018-01-15T05:42:36.756Z,2.30
2018-01-15T05:45:04.327Z,2.20
2018-01-15T05:47:31.763Z,2.20
2018-01-15T05:49:59.217Z,2.10
2018-01-15T05:52:26.673Z,2.00
2018-01-15T05:54:54.492Z,1.90
2018-01-15T05:57:21.934Z,1.80
2018-01-15T05:59:49.381Z,1.80
2018-01-15T06:02:16.913Z,1.80
2018-01-15T06:04:44.368Z,1.80
2018-01-15T06:07:11.834Z,1.80
2018-01-15T06:09:39.273Z,1.80
2018-01-15T06:12:06.718Z,1.80
2018-01-15T06:14:34.167Z,1.80
2018-01-15T06:17:01.619Z,1.80
2018-01-15T06:19:29.126Z,1.80
2018-01-15T06:21:56.527Z,1.80
2018-01-15T06:24:23.968Z,1.90
2018-01-15T06:26:52.184Z,1.90
2018-01-15T06:29:19.630Z,1.80
2018-01-15T06:31:47.847Z,1.80
2018-01-15T06:34:15.318Z,1.80
2018-01-15T06:36:42.753Z,1.80
2018-01-15T06:39:10.203Z,1.80
2018-01-15T06:41:37.657Z,1.70
2018-01-15T06:44:05.889Z,1.70
2018-01-15T06:46:33.386Z,1.60
2018-01-15T06:49:00.802Z,1.70
2018-01-15T06:51:28.252Z,1.70
2018-01-15T06:53:55.773Z,1.60
2018-01-15T06:56:23.224Z,1.60
2018-01-15T06:58:50.673Z,1.60
2018-01-15T07:01:18.112Z,1.60
2018-01-15T07:03:45.572Z,1.70
2018-01-15T07:06:13.018Z,1.70
2018-01-15T07:08:40.463Z,1.70
2018-01-15T07:11:08.287Z,1.70
2018-01-15T07:13:35.747Z,1.70
2018-01-15T07:16:03.198Z,1.70
2018-01-15T07:18:30.652Z,1.80
2018-01-15T07:20:58.100Z,1.80
2018-01-15T07:23:26.093Z,1.80
2018-01-15T07:25:53.541Z,1.80
2018-01-15T07:28:20.979Z,1.70
2018-01-15T07:30:48.441Z,1.70
2018-01-15T07:33:15.889Z,1.70
2018-01-15T07:35:43.810Z,1.70
2018-01-15T07:38:11.248Z,1.80
2018-01-15T07:40:38.716Z,1.80
2018-01-15T07:43:06.171Z,1.70
2018-01-15T07:45:33.622Z,1.70
2018-01-15T07:48:01.064Z,1.80
2018-01-15T07:50:28.520Z,1.80
2018-01-15T07:52:56.730Z,1.80
2018-01-15T07:55:24.173Z,1.80
2018-01-15T07:57:51.649Z,1.80
2018-01-15T08:00:19.083Z,1.80
2018-01-15T08:02:46.524Z,1.80
2018-01-15T08:05:14.840Z,1.80
2018-01-15T08:07:42.275Z,1.80
2018-01-15T08:10:09.731Z,1.80
2018-01-15T08:12:37.180Z,1.80
2018-01-15T08:15:05.387Z,1.80
2018-01-15T08:17:40.585Z,1.80
2018-01-15T08:20:08.024Z,1.80
2018-01-15T08:22:35.470Z,1.80
2018-01-15T08:25:04.906Z,1.80
2018-01-15T08:27:33.103Z,1.80
2018-01-15T08:30:01.573Z,1.80
2018-01-15T08:32:29.015Z,1.80
2018-01-15T08:34:56.467Z,1.90
2018-01-15T08:37:23.925Z,1.90
2018-01-15T08:39:51.388Z,1.90
2018-01-15T08:42:18.849Z,1.90
2018-01-15T08:44:46.288Z,1.90
2018-01-15T08:47:13.728Z,1.90
2018-01-15T08:49:41.198Z,1.90
2018-01-15T08:52:09.404Z,2.00
2018-01-15T08:54:36.859Z,2.00
2018-01-15T08:57:04.302Z,2.10
2018-01-15T08:59:31.757Z,2.20
2018-01-15T09:01:59.208Z,2.20
2018-01-15T09:04:26.677Z,2.20
2018-01-15T09:06:54.360Z,2.20
2018-01-15T09:09:21.809Z,2.20
2018-01-15T09:11:49.244Z,2.20
2018-01-15T09:14:16.707Z,2.20
2018-01-15T09:16:44.151Z,2.20
2018-01-15T09:19:12.012Z,2.10
2018-01-15T09:21:39.458Z,2.20
2018-01-15T09:24:06.901Z,2.20
2018-01-15T09:26:35.117Z,2.20
2018-01-15T09:29:02.577Z,2.20
2018-01-15T09:31:30.369Z,2.20
2018-01-15T09:33:57.831Z,2.20
2018-01-15T09:36:25.273Z,2.30
2018-01-15T09:38:52.728Z,2.30
2018-01-15T09:41:20.165Z,2.40
2018-01-15T09:43:47.905Z,2.40
2018-01-15T09:46:15.345Z,2.40
2018-01-15T09:48:42.783Z,2.40
2018-01-15T09:51:10.244Z,2.40
2018-01-15T09:53:37.688Z,2.40
2018-01-15T09:56:05.154Z,2.40
2018-01-15T09:58:32.601Z,2.30
2018-01-15T10:01:00.045Z,2.40
2018-01-15T10:03:28.264Z,2.40
2018-01-15T10:05:55.711Z,2.40
2018-01-15T10:08:23.171Z,2.50
2018-01-15T10:10:50.614Z,2.50
2018-01-15T10:13:18.815Z,2.70
2018-01-15T10:15:46.277Z,2.60
2018-01-15T10:18:13.716Z,2.80
2018-01-15T10:20:41.173Z,2.80
2018-01-15T10:23:08.622Z,2.90
2018-01-15T10:25:36.066Z,2.90
2018-01-15T10:28:03.524Z,2.90
2018-01-15T10:30:30.993Z,2.90
2018-01-15T10:32:58.840Z,2.90
2018-01-15T10:35:26.280Z,2.90
2018-01-15T10:37:53.734Z,2.90
2018-01-15T10:40:21.192Z,2.90
2018-01-15T10:42:48.985Z,2.90
2018-01-15T10:45:16.663Z,2.90
2018-01-15T10:47:44.229Z,2.90
2018-01-15T10:50:11.673Z,2.90
2018-01-15T10:52:39.130Z,2.90
2018-01-15T10:55:06.579Z,3.00
2018-01-15T10:57:34.120Z,3.00
2018-01-15T11:02:40.049Z,2.80
2018-01-15T11:05:07.493Z,2.80
2018-01-15T11:07:34.935Z,2.90
2018-01-15T11:10:06.277Z,2.90
2018-01-15T11:12:35.880Z,2.90
2018-01-15T11:15:03.337Z,2.80
2018-01-15T11:17:30.785Z,2.90
2018-01-15T11:19:58.241Z,3.00
2018-01-15T11:22:25.700Z,3.00
2018-01-15T11:24:53.166Z,3.00
2018-01-15T11:27:20.625Z,3.00
2018-01-15T11:29:48.058Z,3.00
2018-01-15T11:32:15.532Z,3.10
2018-01-15T11:34:42.977Z,3.20
2018-01-15T11:37:10.430Z,3.30
2018-01-15T11:39:37.881Z,3.30
2018-01-15T11:42:05.320Z,3.30
2018-01-15T11:44:33.553Z,3.20
2018-01-15T11:47:00.999Z,3.20
2018-01-15T11:49:28.461Z,3.20
2018-01-15T11:51:55.912Z,3.10
2018-01-15T11:54:23.354Z,3.10
2018-01-15T11:56:50.807Z,3.10
2018-01-15T11:59:18.257Z,3.10
2018-01-15T12:01:46.004Z,3.10
2018-01-15T12:04:13.466Z,3.20
2018-01-15T12:06:40.921Z,3.30
2018-01-15T12:09:08.384Z,3.40
2018-01-15T12:11:35.832Z,3.40
2018-01-15T12:14:03.315Z,3.50
2018-01-15T12:16:30.767Z,3.50
2018-01-15T12:18:58.210Z,3.50
2018-01-15T12:21:25.674Z,3.50
2018-01-15T12:23:53.328Z,3.60
2018-01-15T12:26:21.259Z,3.70
2018-01-15T12:28:48.714Z,3.70
2018-01-15T12:31:16.169Z,3.70
2018-01-15T12:33:43.711Z,3.70
2018-01-15T12:36:11.174Z,3.70
2018-01-15T12:38:40.257Z,3.70
2018-01-15T12:41:07.715Z,3.70
2018-01-15T12:43:35.284Z,3.70
2018-01-15T12:46:02.774Z,3.70
2018-01-15T12:48:30.213Z,3.70
2018-01-15T12:50:57.673Z,3.70
2018-01-15T12:53:25.125Z,3.80
2018-01-15T12:55:52.889Z,3.80
2018-01-15T12:58:20.334Z,3.80
2018-01-15T13:00:47.802Z,3.80
2018-01-15T13:03:15.231Z,3.90
2018-01-15T13:05:50.477Z,3.90
2018-01-15T13:08:29.716Z,3.90
2018-01-15T13:10:57.164Z,3.80
2018-01-15T13:13:25.104Z,3.80
2018-01-15T13:15:52.549Z,3.80
2018-01-15T13:18:20.010Z,3.90
2018-01-15T13:20:47.472Z,3.80
2018-01-15T13:23:14.920Z,3.70
2018-01-15T13:25:42.411Z,3.70
2018-01-15T13:28:09.844Z,3.70
2018-01-15T13:30:37.645Z,3.70
2018-01-15T13:33:05.096Z,3.80
2018-01-15T13:35:32.550Z,3.80
2018-01-15T13:38:00.009Z,3.80
2018-01-15T13:40:27.448Z,3.90
2018-01-15T13:42:54.901Z,3.90
2018-01-15T13:45:23.125Z,3.90
2018-01-15T13:47:50.575Z,3.90
2018-01-15T13:50:18.053Z,4.00
2018-01-15T13:52:45.496Z,4.00
2018-01-15T13:55:13.237Z,4.00
2018-01-15T13:57:40.648Z,4.00
2018-01-15T14:00:08.101Z,4.00
2018-01-15T14:02:35.556Z,4.10
2018-01-15T14:05:03.007Z,4.10
2018-01-15T14:07:30.898Z,4.20
2018-01-15T14:09:59.659Z,4.20
2018-01-15T14:12:27.087Z,4.20
2018-01-15T14:14:54.548Z,4.30
2018-01-15T14:17:21.985Z,4.30
2018-01-15T14:19:49.748Z,4.30
2018-01-15T14:22:17.188Z,4.30
2018-01-15T14:24:44.718Z,4.30
2018-01-15T14:27:12.173Z,4.30
2018-01-15T14:29:39.685Z,4.30
2018-01-15T14:32:07.153Z,4.30
2018-01-15T14:34:34.609Z,4.30
2018-01-15T14:37:02.681Z,4.30
2018-01-15T14:39:30.134Z,4.30
2018-01-15T14:41:57.612Z,4.30
2018-01-15T14:44:25.040Z,4.30
2018-01-15T14:46:52.486Z,4.30
2018-01-15T14:49:20.176Z,4.40
2018-01-15T14:51:47.608Z,4.40
2018-01-15T14:54:15.068Z,4.50
2018-01-15T14:56:43.299Z,4.60
2018-01-15T14:59:10.743Z,4.50
2018-01-15T15:01:38.189Z,4.60
2018-01-15T15:04:05.646Z,4.60
2018-01-15T15:06:33.096Z,4.60
2018-01-15T15:09:00.551Z,4.60
2018-01-15T15:11:28.000Z,4.60
2018-01-15T15:13:55.596Z,4.70
2018-01-15T15:16:23.050Z,4.70
2018-01-15T15:18:50.477Z,4.60
2018-01-15T15:21:17.912Z,4.60
2018-01-15T15:23:45.373Z,4.60
2018-01-15T15:26:12.819Z,4.50
2018-01-15T15:28:40.269Z,4.40
2018-01-15T15:31:07.710Z,4.30
2018-01-15T15:33:35.176Z,4.30
2018-01-15T15:36:02.657Z,4.30
2018-01-15T15:38:30.135Z,4.20
2018-01-15T15:40:57.571Z,4.20
2018-01-15T15:43:25.023Z,4.10
2018-01-15T15:45:52.498Z,4.10
2018-01-15T15:48:19.977Z,4.10
2018-01-15T15:50:47.423Z,4.00
2018-01-15T15:53:14.901Z,4.00
2018-01-15T15:55:42.353Z,4.00
2018-01-15T15:58:09.798Z,3.90
2018-01-15T16:00:37.235Z,3.90
2018-01-15T16:03:04.711Z,3.90
2018-01-15T16:05:32.929Z,3.90
2018-01-15T16:08:00.382Z,3.80
2018-01-15T16:10:27.846Z,3.90
2018-01-15T16:12:55.540Z,4.00
2018-01-15T16:15:22.985Z,4.00
2018-01-15T16:17:50.433Z,4.00
2018-01-15T16:20:17.893Z,4.00
2018-01-15T16:22:57.067Z,4.00
2018-01-15T16:25:25.034Z,4.00
2018-01-15T16:27:52.472Z,4.00
2018-01-15T16:30:19.922Z,4.00
2018-01-15T16:32:47.632Z,3.90
2018-01-15T16:35:15.310Z,3.90
2018-01-15T16:37:43.664Z,3.90
2018-01-15T16:40:11.121Z,3.90
2018-01-15T16:42:38.580Z,3.90
2018-01-15T16:45:06.031Z,3.90
2018-01-15T16:47:33.497Z,3.90
2018-01-15T16:50:08.560Z,4.00
2018-01-15T16:52:35.987Z,4.00
2018-01-15T16:55:04.225Z,4.00
2018-01-15T16:57:31.684Z,4.10
2018-01-15T16:59:59.124Z,4.10
2018-01-15T17:02:26.578Z,4.10
2018-01-15T17:04:54.054Z,4.10
2018-01-15T17:07:21.584Z,4.10
2018-01-15T17:09:49.060Z,4.10
2018-01-15T17:12:16.498Z,4.20
2018-01-15T17:14:43.950Z,4.20
2018-01-15T17:17:11.412Z,4.20
2018-01-15T17:19:38.856Z,4.20
2018-01-15T17:22:06.304Z,4.30
2018-01-15T17:24:33.771Z,4.30
2018-01-15T17:27:01.232Z,4.30
2018-01-15T17:29:29.436Z,4.20
2018-01-15T17:31:56.963Z,4.20
2018-01-15T17:34:24.446Z,4.20
2018-01-15T17:36:51.902Z,4.20
2018-01-15T17:39:19.377Z,4.20
2018-01-15T17:41:46.833Z,4.20
2018-01-15T17:44:14.289Z,4.10
2018-01-15T17:46:42.213Z,4.10
2018-01-15T17:49:09.660Z,4.20
2018-01-15T17:51:37.116Z,4.20
2018-01-15T17:54:04.820Z,4.20
2018-01-15T17:56:32.260Z,4.30
2018-01-15T17:58:59.705Z,4.30
2018-01-15T18:01:27.933Z,4.30
2018-01-15T18:03:55.442Z,4.20
2018-01-15T18:06:22.906Z,4.30
2018-01-15T18:08:50.894Z,4.30
2018-01-15T18:11:18.340Z,4.30
2018-01-15T18:13:45.819Z,4.30
2018-01-15T18:16:13.261Z,4.30
2018-01-15T18:18:40.724Z,4.30
2018-01-15T18:21:08.183Z,4.30
2018-01-15T18:23:35.652Z,4.30
2018-01-15T18:26:03.097Z,4.30
2018-01-15T18:28:30.540Z,4.30
2018-01-15T18:30:58.030Z,4.30
2018-01-15T18:33:25.476Z,4.30
2018-01-15T18:35:52.922Z,4.40
2018-01-15T18:38:21.139Z,4.40
2018-01-15T18:40:48.581Z,4.40
2018-01-15T18:43:16.032Z,4.40
2018-01-15T18:45:43.479Z,4.50
2018-01-15T18:48:10.927Z,4.50
2018-01-15T18:50:38.401Z,4.50
2018-01-15T18:53:05.844Z,4.50
2018-01-15T18:55:33.404Z,4.50
2018-01-15T18:58:00.880Z,4.60
2018-01-15T19:00:28.325Z,4.60
2018-01-15T19:02:55.782Z,4.60
2018-01-15T19:05:23.238Z,4.60
2018-01-15T19:07:50.937Z,4.60
2018-01-15T19:10:19.160Z,4.60
2018-01-15T19:12:46.596Z,4.60
2018-01-15T19:15:14.061Z,4.60
2018-01-15T19:17:41.499Z,4.60
2018-01-15T19:20:16.510Z,4.60
2018-01-15T19:22:43.954Z,4.60
2018-01-15T19:25:11.411Z,4.60
2018-01-15T19:27:38.872Z,4.60
2018-01-15T19:30:06.309Z,4.60
2018-01-15T19:32:35.544Z,4.70
2018-01-15T19:35:19.808Z,4.70
2018-01-15T19:37:48.049Z,4.70
2018-01-15T19:40:15.512Z,4.70
2018-01-15T19:42:42.945Z,4.80
2018-01-15T19:45:18.886Z,4.80
2018-01-15T19:47:52.021Z,4.80
2018-01-15T19:50:25.664Z,4.90
2018-01-15T19:52:58.669Z,4.90
2018-01-15T19:55:31.844Z,4.90
2018-01-15T19:58:05.014Z,5.00
2018-01-15T20:00:38.184Z,5.00
2018-01-15T20:03:11.309Z,5.10
2018-01-15T20:05:44.888Z,5.20
2018-01-15T20:08:18.048Z,5.30
2018-01-15T20:10:47.853Z,5.30
2018-01-15T20:13:15.293Z,5.40
2018-01-15T20:15:42.758Z,5.50
2018-01-15T20:18:10.237Z,5.50
2018-01-15T20:20:37.664Z,5.60
2018-01-15T20:23:05.105Z,5.60
2018-01-15T20:25:33.590Z,5.70
2018-01-15T20:28:01.024Z,5.70
2018-01-15T20:30:28.464Z,5.70
2018-01-15T20:32:56.484Z,5.80
2018-01-15T20:35:23.888Z,5.80
2018-01-15T20:37:51.333Z,5.90
2018-01-15T20:40:19.282Z,5.90
2018-01-15T20:42:46.726Z,5.90
2018-01-15T20:45:14.266Z,5.90
2018-01-15T20:47:43.668Z,6.00
2018-01-15T20:50:11.109Z,6.00
2018-01-15T20:52:38.550Z,6.00
2018-01-15T20:55:06.696Z,6.10
2018-01-15T20:57:34.157Z,6.10
2018-01-15T21:00:01.614Z,6.20
2018-01-15T21:02:29.455Z,6.20
2018-01-15T21:04:56.908Z,6.30
2018-01-15T21:07:24.353Z,6.30
2018-01-15T21:09:52.267Z,6.40
2018-01-15T21:12:19.696Z,6.40
2018-01-15T21:14:47.137Z,6.50
2018-01-15T21:17:14.598Z,6.50
2018-01-15T21:19:42.045Z,6.50
2018-01-15T21:22:09.560Z,6.50
2018-01-15T21:27:20.644Z,6.60
2018-01-15T21:29:48.445Z,6.70
2018-01-15T21:32:15.889Z,6.70
2018-01-15T21:34:43.337Z,6.80
2018-01-15T21:37:11.228Z,6.80
2018-01-15T21:39:38.658Z,6.80
2018-01-15T21:42:06.094Z,6.80
2018-01-15T21:44:33.559Z,6.90
2018-01-15T21:47:01.017Z,6.80
2018-01-15T21:49:28.657Z,6.90
2018-01-15T21:51:56.104Z,6.90
2018-01-15T21:54:23.567Z,7.00
2018-01-15T21:56:51.018Z,7.00
2018-01-15T21:59:18.457Z,7.10
2018-01-15T22:01:45.933Z,7.10
2018-01-15T22:04:13.387Z,7.10
2018-01-15T22:06:40.832Z,7.10
2018-01-15T22:09:08.275Z,7.10
2018-01-15T22:11:36.473Z,7.10
2018-01-15T22:14:04.291Z,7.10
2018-01-15T22:16:31.735Z,7.20
2018-01-15T22:18:59.232Z,7.20
2018-01-15T22:21:26.681Z,7.20
2018-01-15T22:23:54.267Z,7.20
2018-01-15T22:26:22.045Z,7.30
2018-01-15T22:28:50.236Z,7.30
2018-01-15T22:31:17.664Z,7.30
2018-01-15T22:33:45.192Z,7.40
2018-01-15T22:36:12.635Z,7.40
2018-01-15T22:38:40.084Z,7.30
2018-01-15T22:41:07.520Z,7.30
2018-01-15T22:43:34.957Z,7.30
2018-01-15T22:46:02.442Z,7.30
2018-01-15T22:48:29.892Z,7.30
2018-01-15T22:50:57.729Z,7.30
2018-01-15T22:53:25.424Z,7.30
2018-01-15T22:55:52.876Z,7.30
2018-01-15T22:58:20.336Z,7.30
2018-01-15T23:00:47.773Z,7.30
2018-01-15T23:03:15.416Z,7.30
2018-01-15T23:05:42.854Z,7.30
2018-01-15T23:08:11.067Z,7.30
2018-01-15T23:10:38.513Z,7.20
2018-01-15T23:13:05.948Z,7.20
2018-01-15T23:15:33.399Z,7.20
2018-01-15T23:18:00.839Z,7.10
2018-01-15T23:20:28.276Z,7.10
2018-01-15T23:22:55.754Z,7.10
2018-01-15T23:25:23.213Z,7.10
2018-01-15T23:27:50.948Z,7.10
2018-01-15T23:30:18.380Z,7.10
2018-01-15T23:32:45.821Z,7.10
2018-01-15T23:35:13.273Z,7.10
2018-01-15T23:37:40.758Z,7.10
2018-01-15T23:40:08.213Z,7.20
2018-01-15T23:42:38.628Z,7.20
2018-01-15T23:45:06.059Z,7.20
2018-01-15T23:47:33.504Z,7.20
2018-01-15T23:50:00.936Z,7.20
2018-01-15T23:52:28.390Z,7.20
2018-01-15T23:54:55.851Z,7.20
2018-01-15T23:57:23.297Z,7.10
2018-01-15T23:59:50.752Z,7.20
